sensor_id;sensor_type;location;lat;lon;timestamp;temperature;humidity
82991;DHT22;72806;50.832;4.864;2023-11-21T00:01:33;11.80;93.90
82991;DHT22;72806;50.832;4.864;2023-11-21T00:04:00;11.80;94.00
82991;DHT22;72806;50.832;4.864;2023-11-21T00:06:27;11.80;93.90
82991;DHT22;72806;50.832;4.864;2023-11-21T00:08:56;11.80;94.00
82991;DHT22;72806;50.832;4.864;2023-11-21T00:11:23;11.80;94.00
82991;DHT22;72806;50.832;4.864;2023-11-21T00:13:51;11.80;94.00
82991;DHT22;72806;50.832;4.864;2023-11-21T00:16:18;11.90;94.00
82991;DHT22;72806;50.832;4.864;2023-11-21T00:18:46;11.90;94.00
82991;DHT22;72806;50.832;4.864;2023-11-21T00:21:13;11.90;94.00
82991;DHT22;72806;50.832;4.864;2023-11-21T00:23:40;11.90;94.00
82991;DHT22;72806;50.832;4.864;2023-11-21T00:26:07;12.00;94.00
82991;DHT22;72806;50.832;4.864;2023-11-21T00:28:34;12.00;94.00
82991;DHT22;72806;50.832;4.864;2023-11-21T00:31:01;12.00;94.00
82991;DHT22;72806;50.832;4.864;2023-11-21T00:33:29;12.10;94.00
82991;DHT22;72806;50.832;4.864;2023-11-21T00:35:58;12.10;94.00
82991;DHT22;72806;50.832;4.864;2023-11-21T00:38:26;12.10;93.90
82991;DHT22;72806;50.832;4.864;2023-11-21T00:40:53;12.10;93.90
82991;DHT22;72806;50.832;4.864;2023-11-21T00:43:21;12.10;93.80
82991;DHT22;72806;50.832;4.864;2023-11-21T00:45:48;12.10;93.80
82991;DHT22;72806;50.832;4.864;2023-11-21T00:48:15;12.10;93.80
82991;DHT22;72806;50.832;4.864;2023-11-21T00:50:43;12.10;93.70
82991;DHT22;72806;50.832;4.864;2023-11-21T00:53:12;12.10;93.70
82991;DHT22;72806;50.832;4.864;2023-11-21T00:55:38;12.10;93.60
82991;DHT22;72806;50.832;4.864;2023-11-21T00:58:06;12.10;93.60
82991;DHT22;72806;50.832;4.864;2023-11-21T01:00:33;12.10;93.50
82991;DHT22;72806;50.832;4.864;2023-11-21T01:03:00;12.00;93.50
82991;DHT22;72806;50.832;4.864;2023-11-21T01:05:28;12.00;93.50
82991;DHT22;72806;50.832;4.864;2023-11-21T01:07:55;12.00;93.50
82991;DHT22;72806;50.832;4.864;2023-11-21T01:10:23;12.00;93.50
82991;DHT22;72806;50.832;4.864;2023-11-21T01:12:50;11.90;93.50
82991;DHT22;72806;50.832;4.864;2023-11-21T01:15:17;11.90;93.50
82991;DHT22;72806;50.832;4.864;2023-11-21T01:17:44;11.80;93.50
82991;DHT22;72806;50.832;4.864;2023-11-21T01:20:11;11.70;93.40
82991;DHT22;72806;50.832;4.864;2023-11-21T01:22:38;11.70;93.30
82991;DHT22;72806;50.832;4.864;2023-11-21T01:25:06;11.60;93.20
82991;DHT22;72806;50.832;4.864;2023-11-21T01:27:35;11.60;93.10
82991;DHT22;72806;50.832;4.864;2023-11-21T01:30:02;11.50;92.90
82991;DHT22;72806;50.832;4.864;2023-11-21T01:32:32;11.50;92.80
82991;DHT22;72806;50.832;4.864;2023-11-21T01:34:59;11.50;92.70
82991;DHT22;72806;50.832;4.864;2023-11-21T01:37:26;11.40;92.60
82991;DHT22;72806;50.832;4.864;2023-11-21T01:39:54;11.30;92.50
82991;DHT22;72806;50.832;4.864;2023-11-21T01:42:21;11.30;92.50
82991;DHT22;72806;50.832;4.864;2023-11-21T01:44:50;11.20;92.50
82991;DHT22;72806;50.832;4.864;2023-11-21T01:47:17;11.20;92.50
82991;DHT22;72806;50.832;4.864;2023-11-21T01:49:45;11.10;92.50
82991;DHT22;72806;50.832;4.864;2023-11-21T01:52:13;11.10;92.60
82991;DHT22;72806;50.832;4.864;2023-11-21T01:54:41;11.10;92.70
82991;DHT22;72806;50.832;4.864;2023-11-21T01:57:09;11.10;92.90
82991;DHT22;72806;50.832;4.864;2023-11-21T01:59:37;11.10;92.90
82991;DHT22;72806;50.832;4.864;2023-11-21T02:02:06;11.10;93.00
82991;DHT22;72806;50.832;4.864;2023-11-21T02:04:33;11.10;93.00
82991;DHT22;72806;50.832;4.864;2023-11-21T02:07:00;11.10;93.00
82991;DHT22;72806;50.832;4.864;2023-11-21T02:09:27;11.10;93.00
82991;DHT22;72806;50.832;4.864;2023-11-21T02:11:57;11.10;93.10
82991;DHT22;72806;50.832;4.864;2023-11-21T02:14:24;11.00;93.10
82991;DHT22;72806;50.832;4.864;2023-11-21T02:16:53;11.00;93.30
82991;DHT22;72806;50.832;4.864;2023-11-21T02:19:22;11.00;93.40
82991;DHT22;72806;50.832;4.864;2023-11-21T02:21:50;11.00;93.50
82991;DHT22;72806;50.832;4.864;2023-11-21T02:24:20;10.90;93.40
82991;DHT22;72806;50.832;4.864;2023-11-21T02:26:48;11.00;93.50
82991;DHT22;72806;50.832;4.864;2023-11-21T02:29:17;11.00;93.50
82991;DHT22;72806;50.832;4.864;2023-11-21T02:31:48;11.00;93.50
82991;DHT22;72806;50.832;4.864;2023-11-21T02:34:15;11.00;93.60
82991;DHT22;72806;50.832;4.864;2023-11-21T02:36:43;11.00;93.60
82991;DHT22;72806;50.832;4.864;2023-11-21T02:39:10;11.00;93.50
82991;DHT22;72806;50.832;4.864;2023-11-21T02:41:39;11.00;93.50
82991;DHT22;72806;50.832;4.864;2023-11-21T02:44:06;11.00;93.50
82991;DHT22;72806;50.832;4.864;2023-11-21T02:46:34;11.00;93.40
82991;DHT22;72806;50.832;4.864;2023-11-21T02:49:01;11.00;93.30
82991;DHT22;72806;50.832;4.864;2023-11-21T02:51:29;11.00;93.10
82991;DHT22;72806;50.832;4.864;2023-11-21T02:53:57;10.90;93.10
82991;DHT22;72806;50.832;4.864;2023-11-21T02:56:24;10.90;93.00
82991;DHT22;72806;50.832;4.864;2023-11-21T02:58:55;10.90;93.00
82991;DHT22;72806;50.832;4.864;2023-11-21T03:01:24;10.90;93.00
82991;DHT22;72806;50.832;4.864;2023-11-21T03:03:51;10.90;93.00
82991;DHT22;72806;50.832;4.864;2023-11-21T03:06:18;10.90;93.00
82991;DHT22;72806;50.832;4.864;2023-11-21T03:08:45;10.90;93.30
82991;DHT22;72806;50.832;4.864;2023-11-21T03:11:12;10.90;93.00
82991;DHT22;72806;50.832;4.864;2023-11-21T03:13:40;10.90;93.10
82991;DHT22;72806;50.832;4.864;2023-11-21T03:16:10;10.90;93.10
82991;DHT22;72806;50.832;4.864;2023-11-21T03:18:37;10.90;93.20
82991;DHT22;72806;50.832;4.864;2023-11-21T03:21:04;10.90;93.20
82991;DHT22;72806;50.832;4.864;2023-11-21T03:23:31;10.90;93.20
82991;DHT22;72806;50.832;4.864;2023-11-21T03:25:58;10.90;93.20
82991;DHT22;72806;50.832;4.864;2023-11-21T03:28:25;10.90;93.20
82991;DHT22;72806;50.832;4.864;2023-11-21T03:30:53;10.90;93.20
82991;DHT22;72806;50.832;4.864;2023-11-21T03:33:22;10.90;93.20
82991;DHT22;72806;50.832;4.864;2023-11-21T03:35:49;10.80;93.10
82991;DHT22;72806;50.832;4.864;2023-11-21T03:38:16;10.80;93.10
82991;DHT22;72806;50.832;4.864;2023-11-21T03:40:43;10.80;93.10
82991;DHT22;72806;50.832;4.864;2023-11-21T03:43:09;10.80;93.10
82991;DHT22;72806;50.832;4.864;2023-11-21T03:45:37;10.80;93.20
82991;DHT22;72806;50.832;4.864;2023-11-21T03:48:06;10.80;93.20
82991;DHT22;72806;50.832;4.864;2023-11-21T03:50:34;10.80;93.20
82991;DHT22;72806;50.832;4.864;2023-11-21T03:53:01;10.80;93.20
82991;DHT22;72806;50.832;4.864;2023-11-21T03:55:29;10.80;93.30
82991;DHT22;72806;50.832;4.864;2023-11-21T03:57:57;10.70;93.40
82991;DHT22;72806;50.832;4.864;2023-11-21T04:00:24;10.80;93.50
82991;DHT22;72806;50.832;4.864;2023-11-21T04:02:52;10.70;93.50
82991;DHT22;72806;50.832;4.864;2023-11-21T04:05:20;10.80;93.60
82991;DHT22;72806;50.832;4.864;2023-11-21T04:07:48;10.80;93.60
82991;DHT22;72806;50.832;4.864;2023-11-21T04:10:15;9.90;93.20
82991;DHT22;72806;50.832;4.864;2023-11-21T04:12:42;10.80;93.50
82991;DHT22;72806;50.832;4.864;2023-11-21T04:15:11;10.80;93.50
82991;DHT22;72806;50.832;4.864;2023-11-21T04:17:39;10.90;93.60
82991;DHT22;72806;50.832;4.864;2023-11-21T04:20:07;10.90;93.60
82991;DHT22;72806;50.832;4.864;2023-11-21T04:22:37;10.90;93.70
82991;DHT22;72806;50.832;4.864;2023-11-21T04:25:08;10.90;93.70
82991;DHT22;72806;50.832;4.864;2023-11-21T04:27:35;10.90;93.70
82991;DHT22;72806;50.832;4.864;2023-11-21T04:30:02;11.00;93.70
82991;DHT22;72806;50.832;4.864;2023-11-21T04:32:29;11.00;93.70
82991;DHT22;72806;50.832;4.864;2023-11-21T04:34:56;11.00;93.70
82991;DHT22;72806;50.832;4.864;2023-11-21T04:37:23;11.00;93.70
82991;DHT22;72806;50.832;4.864;2023-11-21T04:39:50;11.00;93.80
82991;DHT22;72806;50.832;4.864;2023-11-21T04:42:18;11.00;93.80
82991;DHT22;72806;50.832;4.864;2023-11-21T04:44:45;11.00;93.80
82991;DHT22;72806;50.832;4.864;2023-11-21T04:47:12;11.10;93.90
82991;DHT22;72806;50.832;4.864;2023-11-21T04:49:42;11.00;93.80
82991;DHT22;72806;50.832;4.864;2023-11-21T04:52:09;11.10;93.90
82991;DHT22;72806;50.832;4.864;2023-11-21T04:54:36;11.10;93.90
82991;DHT22;72806;50.832;4.864;2023-11-21T04:57:03;11.10;93.90
82991;DHT22;72806;50.832;4.864;2023-11-21T04:59:34;11.10;93.90
82991;DHT22;72806;50.832;4.864;2023-11-21T05:02:01;11.10;93.90
82991;DHT22;72806;50.832;4.864;2023-11-21T05:04:28;11.10;93.90
82991;DHT22;72806;50.832;4.864;2023-11-21T05:06:55;11.20;94.00
82991;DHT22;72806;50.832;4.864;2023-11-21T05:09:22;11.20;93.90
82991;DHT22;72806;50.832;4.864;2023-11-21T05:11:49;11.20;93.90
82991;DHT22;72806;50.832;4.864;2023-11-21T05:14:16;11.30;93.90
82991;DHT22;72806;50.832;4.864;2023-11-21T05:16:47;11.30;93.90
82991;DHT22;72806;50.832;4.864;2023-11-21T05:19:13;11.40;93.90
82991;DHT22;72806;50.832;4.864;2023-11-21T05:21:40;11.40;93.90
82991;DHT22;72806;50.832;4.864;2023-11-21T05:24:07;11.40;93.90
82991;DHT22;72806;50.832;4.864;2023-11-21T05:26:34;11.50;93.90
82991;DHT22;72806;50.832;4.864;2023-11-21T05:29:01;11.40;93.80
82991;DHT22;72806;50.832;4.864;2023-11-21T05:31:29;11.50;93.80
82991;DHT22;72806;50.832;4.864;2023-11-21T05:33:59;11.40;93.70
82991;DHT22;72806;50.832;4.864;2023-11-21T05:36:26;11.40;93.60
82991;DHT22;72806;50.832;4.864;2023-11-21T05:38:52;11.40;93.50
82991;DHT22;72806;50.832;4.864;2023-11-21T05:41:19;11.40;93.50
82991;DHT22;72806;50.832;4.864;2023-11-21T05:43:47;11.40;93.50
82991;DHT22;72806;50.832;4.864;2023-11-21T05:46:14;11.30;93.50
82991;DHT22;72806;50.832;4.864;2023-11-21T05:48:42;11.30;93.50
82991;DHT22;72806;50.832;4.864;2023-11-21T05:51:10;11.40;93.60
82991;DHT22;72806;50.832;4.864;2023-11-21T05:53:38;11.30;93.60
82991;DHT22;72806;50.832;4.864;2023-11-21T05:56:06;11.40;93.60
82991;DHT22;72806;50.832;4.864;2023-11-21T05:58:33;11.40;93.60
82991;DHT22;72806;50.832;4.864;2023-11-21T06:01:00;11.40;93.60
82991;DHT22;72806;50.832;4.864;2023-11-21T06:03:27;11.40;93.70
82991;DHT22;72806;50.832;4.864;2023-11-21T06:05:54;11.40;93.70
82991;DHT22;72806;50.832;4.864;2023-11-21T06:08:22;11.40;93.70
82991;DHT22;72806;50.832;4.864;2023-11-21T06:10:50;11.50;93.70
82991;DHT22;72806;50.832;4.864;2023-11-21T06:13:17;11.50;93.70
82991;DHT22;72806;50.832;4.864;2023-11-21T06:15:46;11.50;93.70
82991;DHT22;72806;50.832;4.864;2023-11-21T06:18:13;11.50;93.70
82991;DHT22;72806;50.832;4.864;2023-11-21T06:20:40;11.50;93.70
82991;DHT22;72806;50.832;4.864;2023-11-21T06:23:07;11.60;93.80
82991;DHT22;72806;50.832;4.864;2023-11-21T06:25:36;11.60;93.80
82991;DHT22;72806;50.832;4.864;2023-11-21T06:28:03;11.60;93.80
82991;DHT22;72806;50.832;4.864;2023-11-21T06:30:30;11.50;93.80
82991;DHT22;72806;50.832;4.864;2023-11-21T06:32:57;11.60;93.80
82991;DHT22;72806;50.832;4.864;2023-11-21T06:35:25;11.60;93.80
82991;DHT22;72806;50.832;4.864;2023-11-21T06:37:53;11.60;93.70
82991;DHT22;72806;50.832;4.864;2023-11-21T06:40:20;11.60;93.70
82991;DHT22;72806;50.832;4.864;2023-11-21T06:42:48;11.60;93.70
82991;DHT22;72806;50.832;4.864;2023-11-21T06:45:16;11.60;93.80
82991;DHT22;72806;50.832;4.864;2023-11-21T06:47:43;11.60;93.80
82991;DHT22;72806;50.832;4.864;2023-11-21T06:50:10;11.70;93.80
82991;DHT22;72806;50.832;4.864;2023-11-21T06:52:37;11.70;93.80
82991;DHT22;72806;50.832;4.864;2023-11-21T06:55:06;11.70;93.80
82991;DHT22;72806;50.832;4.864;2023-11-21T06:57:33;11.70;93.70
82991;DHT22;72806;50.832;4.864;2023-11-21T07:00:02;11.80;93.70
82991;DHT22;72806;50.832;4.864;2023-11-21T07:02:30;11.80;93.70
82991;DHT22;72806;50.832;4.864;2023-11-21T07:04:57;11.70;93.70
82991;DHT22;72806;50.832;4.864;2023-11-21T07:07:24;11.80;93.70
82991;DHT22;72806;50.832;4.864;2023-11-21T07:09:51;11.80;93.70
82991;DHT22;72806;50.832;4.864;2023-11-21T07:12:17;11.80;93.70
82991;DHT22;72806;50.832;4.864;2023-11-21T07:14:44;11.80;93.80
82991;DHT22;72806;50.832;4.864;2023-11-21T07:17:13;11.80;93.70
82991;DHT22;72806;50.832;4.864;2023-11-21T07:19:40;11.70;94.00
82991;DHT22;72806;50.832;4.864;2023-11-21T07:22:07;11.80;93.80
82991;DHT22;72806;50.832;4.864;2023-11-21T07:24:37;11.80;93.90
82991;DHT22;72806;50.832;4.864;2023-11-21T07:27:04;11.80;93.90
82991;DHT22;72806;50.832;4.864;2023-11-21T07:29:31;11.80;93.90
82991;DHT22;72806;50.832;4.864;2023-11-21T07:31:58;11.10;93.60
82991;DHT22;72806;50.832;4.864;2023-11-21T07:34:27;11.80;93.80
82991;DHT22;72806;50.832;4.864;2023-11-21T07:36:54;11.80;93.80
82991;DHT22;72806;50.832;4.864;2023-11-21T07:39:21;11.80;93.80
82991;DHT22;72806;50.832;4.864;2023-11-21T07:41:48;11.90;93.90
82991;DHT22;72806;50.832;4.864;2023-11-21T07:44:16;11.90;94.00
82991;DHT22;72806;50.832;4.864;2023-11-21T07:46:45;11.90;94.00
82991;DHT22;72806;50.832;4.864;2023-11-21T07:49:12;11.90;94.10
82991;DHT22;72806;50.832;4.864;2023-11-21T07:51:43;12.00;94.20
82991;DHT22;72806;50.832;4.864;2023-11-21T07:54:10;12.00;94.20
82991;DHT22;72806;50.832;4.864;2023-11-21T07:56:37;12.00;94.20
82991;DHT22;72806;50.832;4.864;2023-11-21T07:59:04;12.10;94.20
82991;DHT22;72806;50.832;4.864;2023-11-21T08:01:31;12.10;94.20
82991;DHT22;72806;50.832;4.864;2023-11-21T08:03:58;12.10;94.20
82991;DHT22;72806;50.832;4.864;2023-11-21T08:06:29;12.20;94.20
82991;DHT22;72806;50.832;4.864;2023-11-21T08:08:57;12.20;94.20
82991;DHT22;72806;50.832;4.864;2023-11-21T08:11:24;12.30;94.20
82991;DHT22;72806;50.832;4.864;2023-11-21T08:13:52;12.30;94.20
82991;DHT22;72806;50.832;4.864;2023-11-21T08:16:19;12.30;94.20
82991;DHT22;72806;50.832;4.864;2023-11-21T08:18:46;12.40;94.30
82991;DHT22;72806;50.832;4.864;2023-11-21T08:21:13;12.40;94.30
82991;DHT22;72806;50.832;4.864;2023-11-21T08:23:40;12.40;94.30
82991;DHT22;72806;50.832;4.864;2023-11-21T08:26:08;12.40;94.30
82991;DHT22;72806;50.832;4.864;2023-11-21T08:28:35;12.50;94.30
82991;DHT22;72806;50.832;4.864;2023-11-21T08:31:02;12.60;94.30
82991;DHT22;72806;50.832;4.864;2023-11-21T08:33:30;12.60;94.30
82991;DHT22;72806;50.832;4.864;2023-11-21T08:35:57;12.60;94.30
82991;DHT22;72806;50.832;4.864;2023-11-21T08:38:24;12.60;94.30
82991;DHT22;72806;50.832;4.864;2023-11-21T08:40:50;12.60;94.30
82991;DHT22;72806;50.832;4.864;2023-11-21T08:43:19;12.60;94.30
82991;DHT22;72806;50.832;4.864;2023-11-21T08:45:46;12.60;94.30
82991;DHT22;72806;50.832;4.864;2023-11-21T08:48:13;12.70;94.40
82991;DHT22;72806;50.832;4.864;2023-11-21T08:50:40;12.70;94.40
82991;DHT22;72806;50.832;4.864;2023-11-21T08:53:07;12.70;94.30
82991;DHT22;72806;50.832;4.864;2023-11-21T08:55:34;12.70;94.40
82991;DHT22;72806;50.832;4.864;2023-11-21T08:58:03;12.80;94.30
82991;DHT22;72806;50.832;4.864;2023-11-21T09:00:32;12.80;94.30
82991;DHT22;72806;50.832;4.864;2023-11-21T09:03:01;12.80;94.20
82991;DHT22;72806;50.832;4.864;2023-11-21T09:05:29;12.80;94.20
82991;DHT22;72806;50.832;4.864;2023-11-21T09:07:56;12.80;94.20
82991;DHT22;72806;50.832;4.864;2023-11-21T09:10:23;12.80;94.20
82991;DHT22;72806;50.832;4.864;2023-11-21T09:12:51;12.80;94.20
82991;DHT22;72806;50.832;4.864;2023-11-21T09:15:18;12.90;94.30
82991;DHT22;72806;50.832;4.864;2023-11-21T09:17:47;12.90;94.30
82991;DHT22;72806;50.832;4.864;2023-11-21T09:20:14;13.00;94.40
82991;DHT22;72806;50.832;4.864;2023-11-21T09:22:41;13.00;94.50
82991;DHT22;72806;50.832;4.864;2023-11-21T09:25:10;13.10;94.60
82991;DHT22;72806;50.832;4.864;2023-11-21T09:27:38;13.10;94.60
82991;DHT22;72806;50.832;4.864;2023-11-21T09:30:06;13.20;94.60
82991;DHT22;72806;50.832;4.864;2023-11-21T09:32:35;13.20;94.70
82991;DHT22;72806;50.832;4.864;2023-11-21T09:35:05;13.30;94.80
82991;DHT22;72806;50.832;4.864;2023-11-21T09:37:33;13.30;94.80
82991;DHT22;72806;50.832;4.864;2023-11-21T09:40:01;13.40;94.80
82991;DHT22;72806;50.832;4.864;2023-11-21T09:42:31;13.50;94.70
82991;DHT22;72806;50.832;4.864;2023-11-21T09:45:08;13.50;94.90
82991;DHT22;72806;50.832;4.864;2023-11-21T09:47:39;13.50;94.60
82991;DHT22;72806;50.832;4.864;2023-11-21T09:50:09;13.50;94.50
82991;DHT22;72806;50.832;4.864;2023-11-21T09:52:44;13.40;94.50
82991;DHT22;72806;50.832;4.864;2023-11-21T09:55:16;13.50;94.50
82991;DHT22;72806;50.832;4.864;2023-11-21T09:57:47;13.50;94.50
82991;DHT22;72806;50.832;4.864;2023-11-21T10:00:16;13.50;94.40
82991;DHT22;72806;50.832;4.864;2023-11-21T10:02:46;13.50;94.40
82991;DHT22;72806;50.832;4.864;2023-11-21T10:05:16;13.50;94.30
82991;DHT22;72806;50.832;4.864;2023-11-21T10:07:48;13.40;94.20
82991;DHT22;72806;50.832;4.864;2023-11-21T10:10:19;13.40;94.20
82991;DHT22;72806;50.832;4.864;2023-11-21T10:12:49;13.30;94.20
82991;DHT22;72806;50.832;4.864;2023-11-21T10:15:21;13.30;94.20
82991;DHT22;72806;50.832;4.864;2023-11-21T10:17:49;13.30;94.30
82991;DHT22;72806;50.832;4.864;2023-11-21T10:20:20;13.30;94.30
82991;DHT22;72806;50.832;4.864;2023-11-21T10:22:47;13.30;94.30
82991;DHT22;72806;50.832;4.864;2023-11-21T10:25:14;13.40;94.40
82991;DHT22;72806;50.832;4.864;2023-11-21T10:27:41;13.50;94.40
82991;DHT22;72806;50.832;4.864;2023-11-21T10:30:10;13.50;94.50
82991;DHT22;72806;50.832;4.864;2023-11-21T10:32:37;13.50;94.40
82991;DHT22;72806;50.832;4.864;2023-11-21T10:35:06;13.60;94.40
82991;DHT22;72806;50.832;4.864;2023-11-21T10:37:37;13.60;94.40
82991;DHT22;72806;50.832;4.864;2023-11-21T10:40:06;13.60;94.30
82991;DHT22;72806;50.832;4.864;2023-11-21T10:42:37;13.60;94.30
82991;DHT22;72806;50.832;4.864;2023-11-21T10:45:05;13.50;94.30
82991;DHT22;72806;50.832;4.864;2023-11-21T10:47:38;13.50;94.30
82991;DHT22;72806;50.832;4.864;2023-11-21T10:50:06;13.50;94.30
82991;DHT22;72806;50.832;4.864;2023-11-21T10:52:38;13.50;94.30
82991;DHT22;72806;50.832;4.864;2023-11-21T10:55:16;13.50;94.40
82991;DHT22;72806;50.832;4.864;2023-11-21T10:57:45;13.50;94.40
82991;DHT22;72806;50.832;4.864;2023-11-21T11:00:16;13.60;94.40
82991;DHT22;72806;50.832;4.864;2023-11-21T11:02:46;13.60;94.40
82991;DHT22;72806;50.832;4.864;2023-11-21T11:05:16;13.60;94.40
82991;DHT22;72806;50.832;4.864;2023-11-21T11:07:50;13.70;94.40
82991;DHT22;72806;50.832;4.864;2023-11-21T11:10:21;13.70;94.40
82991;DHT22;72806;50.832;4.864;2023-11-21T11:12:48;13.70;94.40
82991;DHT22;72806;50.832;4.864;2023-11-21T11:15:19;13.80;94.60
82991;DHT22;72806;50.832;4.864;2023-11-21T11:17:46;13.80;94.60
82991;DHT22;72806;50.832;4.864;2023-11-21T11:20:15;13.90;94.60
82991;DHT22;72806;50.832;4.864;2023-11-21T11:22:48;13.90;94.50
82991;DHT22;72806;50.832;4.864;2023-11-21T11:25:38;13.90;94.30
82991;DHT22;72806;50.832;4.864;2023-11-21T11:28:15;13.90;94.40
82991;DHT22;72806;50.832;4.864;2023-11-21T11:30:54;13.90;94.30
82991;DHT22;72806;50.832;4.864;2023-11-21T11:33:31;13.90;94.20
82991;DHT22;72806;50.832;4.864;2023-11-21T11:36:06;13.80;94.10
82991;DHT22;72806;50.832;4.864;2023-11-21T11:38:35;13.80;94.10
82991;DHT22;72806;50.832;4.864;2023-11-21T11:41:03;13.80;94.20
82991;DHT22;72806;50.832;4.864;2023-11-21T11:43:31;13.80;94.20
82991;DHT22;72806;50.832;4.864;2023-11-21T11:46:05;13.80;94.20
82991;DHT22;72806;50.832;4.864;2023-11-21T11:48:37;13.80;94.10
82991;DHT22;72806;50.832;4.864;2023-11-21T11:51:06;13.80;94.10
82991;DHT22;72806;50.832;4.864;2023-11-21T11:53:42;13.80;94.10
82991;DHT22;72806;50.832;4.864;2023-11-21T11:56:25;13.80;94.00
82991;DHT22;72806;50.832;4.864;2023-11-21T11:58:53;13.80;93.90
82991;DHT22;72806;50.832;4.864;2023-11-21T12:01:21;13.80;93.80
82991;DHT22;72806;50.832;4.864;2023-11-21T12:04:25;13.70;93.80
82991;DHT22;72806;50.832;4.864;2023-11-21T12:07:01;13.70;93.90
82991;DHT22;72806;50.832;4.864;2023-11-21T12:09:31;13.60;93.90
82991;DHT22;72806;50.832;4.864;2023-11-21T12:11:58;13.50;93.80
82991;DHT22;72806;50.832;4.864;2023-11-21T12:14:28;13.50;93.90
82991;DHT22;72806;50.832;4.864;2023-11-21T12:16:55;13.50;94.00
82991;DHT22;72806;50.832;4.864;2023-11-21T12:19:22;13.40;94.00
82991;DHT22;72806;50.832;4.864;2023-11-21T12:21:49;13.40;94.10
82991;DHT22;72806;50.832;4.864;2023-11-21T12:24:17;13.40;94.20
82991;DHT22;72806;50.832;4.864;2023-11-21T12:26:46;13.40;94.20
82991;DHT22;72806;50.832;4.864;2023-11-21T12:29:13;13.40;94.30
82991;DHT22;72806;50.832;4.864;2023-11-21T12:31:42;13.40;94.20
82991;DHT22;72806;50.832;4.864;2023-11-21T12:34:10;13.40;94.10
82991;DHT22;72806;50.832;4.864;2023-11-21T12:36:37;13.20;94.10
82991;DHT22;72806;50.832;4.864;2023-11-21T12:39:05;13.30;94.20
82991;DHT22;72806;50.832;4.864;2023-11-21T12:41:34;13.40;94.30
82991;DHT22;72806;50.832;4.864;2023-11-21T12:44:03;13.40;94.40
82991;DHT22;72806;50.832;4.864;2023-11-21T12:46:30;13.50;94.40
82991;DHT22;72806;50.832;4.864;2023-11-21T12:49:00;13.50;94.40
82991;DHT22;72806;50.832;4.864;2023-11-21T12:51:27;13.50;94.30
82991;DHT22;72806;50.832;4.864;2023-11-21T12:53:55;13.50;94.30
82991;DHT22;72806;50.832;4.864;2023-11-21T12:56:24;13.50;94.30
82991;DHT22;72806;50.832;4.864;2023-11-21T12:58:54;13.50;94.20
82991;DHT22;72806;50.832;4.864;2023-11-21T13:01:26;13.40;94.20
82991;DHT22;72806;50.832;4.864;2023-11-21T13:03:57;13.40;94.30
82991;DHT22;72806;50.832;4.864;2023-11-21T13:06:24;13.50;94.30
82991;DHT22;72806;50.832;4.864;2023-11-21T13:08:52;13.50;94.10
82991;DHT22;72806;50.832;4.864;2023-11-21T13:11:19;13.50;94.10
82991;DHT22;72806;50.832;4.864;2023-11-21T13:13:46;13.50;94.10
82991;DHT22;72806;50.832;4.864;2023-11-21T13:16:15;13.40;94.10
82991;DHT22;72806;50.832;4.864;2023-11-21T13:18:43;13.50;94.30
82991;DHT22;72806;50.832;4.864;2023-11-21T13:21:10;13.90;94.40
82991;DHT22;72806;50.832;4.864;2023-11-21T13:23:40;13.70;94.20
82991;DHT22;72806;50.832;4.864;2023-11-21T13:26:07;13.80;94.10
82991;DHT22;72806;50.832;4.864;2023-11-21T13:28:35;13.70;94.00
82991;DHT22;72806;50.832;4.864;2023-11-21T13:31:04;13.70;94.10
82991;DHT22;72806;50.832;4.864;2023-11-21T13:33:35;13.80;94.10
82991;DHT22;72806;50.832;4.864;2023-11-21T13:36:05;13.80;94.00
82991;DHT22;72806;50.832;4.864;2023-11-21T13:38:35;13.80;94.00
82991;DHT22;72806;50.832;4.864;2023-11-21T13:41:03;13.80;94.00
82991;DHT22;72806;50.832;4.864;2023-11-21T13:43:33;13.80;93.90
82991;DHT22;72806;50.832;4.864;2023-11-21T13:46:02;13.80;93.80
82991;DHT22;72806;50.832;4.864;2023-11-21T13:48:36;13.80;93.70
82991;DHT22;72806;50.832;4.864;2023-11-21T13:51:09;13.70;93.60
82991;DHT22;72806;50.832;4.864;2023-11-21T13:53:43;13.50;93.70
82991;DHT22;72806;50.832;4.864;2023-11-21T13:56:11;13.50;93.70
82991;DHT22;72806;50.832;4.864;2023-11-21T13:58:41;13.50;93.80
82991;DHT22;72806;50.832;4.864;2023-11-21T14:01:13;13.40;93.80
82991;DHT22;72806;50.832;4.864;2023-11-21T14:04:04;13.40;93.70
82991;DHT22;72806;50.832;4.864;2023-11-21T14:06:46;13.30;93.80
82991;DHT22;72806;50.832;4.864;2023-11-21T14:09:14;13.30;93.90
82991;DHT22;72806;50.832;4.864;2023-11-21T14:11:49;13.20;93.80
82991;DHT22;72806;50.832;4.864;2023-11-21T14:14:17;13.20;93.90
82991;DHT22;72806;50.832;4.864;2023-11-21T14:16:44;13.20;93.90
82991;DHT22;72806;50.832;4.864;2023-11-21T14:19:11;13.20;93.90
82991;DHT22;72806;50.832;4.864;2023-11-21T14:21:42;13.20;93.90
82991;DHT22;72806;50.832;4.864;2023-11-21T14:24:12;13.20;93.90
82991;DHT22;72806;50.832;4.864;2023-11-21T14:26:40;13.30;94.00
82991;DHT22;72806;50.832;4.864;2023-11-21T14:29:08;13.30;93.90
82991;DHT22;72806;50.832;4.864;2023-11-21T14:31:38;13.30;94.00
82991;DHT22;72806;50.832;4.864;2023-11-21T14:34:05;13.30;94.00
82991;DHT22;72806;50.832;4.864;2023-11-21T14:36:33;13.30;93.90
82991;DHT22;72806;50.832;4.864;2023-11-21T14:39:00;13.30;93.90
82991;DHT22;72806;50.832;4.864;2023-11-21T14:41:28;13.30;93.90
82991;DHT22;72806;50.832;4.864;2023-11-21T14:43:55;13.30;94.00
82991;DHT22;72806;50.832;4.864;2023-11-21T14:46:23;13.30;94.00
82991;DHT22;72806;50.832;4.864;2023-11-21T14:48:50;13.40;93.90
82991;DHT22;72806;50.832;4.864;2023-11-21T14:51:25;13.30;93.90
82991;DHT22;72806;50.832;4.864;2023-11-21T14:53:53;13.30;93.80
82991;DHT22;72806;50.832;4.864;2023-11-21T14:56:20;13.30;93.90
82991;DHT22;72806;50.832;4.864;2023-11-21T14:58:54;13.30;93.90
82991;DHT22;72806;50.832;4.864;2023-11-21T15:01:22;13.20;93.80
82991;DHT22;72806;50.832;4.864;2023-11-21T15:04:02;13.20;93.90
82991;DHT22;72806;50.832;4.864;2023-11-21T15:06:31;13.20;93.90
82991;DHT22;72806;50.832;4.864;2023-11-21T15:08:58;13.10;93.90
82991;DHT22;72806;50.832;4.864;2023-11-21T15:11:42;13.10;94.00
82991;DHT22;72806;50.832;4.864;2023-11-21T15:14:11;13.10;94.00
82991;DHT22;72806;50.832;4.864;2023-11-21T15:16:41;13.00;94.00
82991;DHT22;72806;50.832;4.864;2023-11-21T15:19:14;13.00;94.10
82991;DHT22;72806;50.832;4.864;2023-11-21T15:21:43;13.00;94.10
82991;DHT22;72806;50.832;4.864;2023-11-21T15:24:11;13.00;94.10
82991;DHT22;72806;50.832;4.864;2023-11-21T15:26:38;12.90;94.20
82991;DHT22;72806;50.832;4.864;2023-11-21T15:29:05;12.90;94.30
82991;DHT22;72806;50.832;4.864;2023-11-21T15:31:34;12.90;94.30
82991;DHT22;72806;50.832;4.864;2023-11-21T15:34:02;12.90;94.30
82991;DHT22;72806;50.832;4.864;2023-11-21T15:36:31;12.90;94.30
82991;DHT22;72806;50.832;4.864;2023-11-21T15:38:59;12.90;94.30